createdAt,value
2023-12-09T00:02:12.631Z,4.57
2023-12-09T00:04:40.735Z,4.47
2023-12-09T00:07:08.134Z,5.65
2023-12-09T00:09:35.667Z,4.20
2023-12-09T00:12:03.418Z,4.78
2023-12-09T00:14:30.855Z,4.70
2023-12-09T00:17:00.324Z,4.90
2023-12-09T00:19:27.997Z,4.20
2023-12-09T00:21:55.438Z,4.20
2023-12-09T00:24:22.910Z,5.03
2023-12-09T00:26:50.935Z,4.38
2023-12-09T00:29:18.339Z,4.07
2023-12-09T00:31:45.753Z,4.10
2023-12-09T00:34:13.293Z,4.90
2023-12-09T00:36:40.772Z,4.35
2023-12-09T00:39:08.203Z,4.60
2023-12-09T00:41:35.838Z,4.50
2023-12-09T00:44:03.384Z,4.60
2023-12-09T00:46:30.786Z,4.63
2023-12-09T00:48:58.510Z,5.13
2023-12-09T00:51:26.138Z,4.47
2023-12-09T00:53:53.541Z,4.05
2023-12-09T00:56:33.427Z,4.72
2023-12-09T00:59:02.841Z,4.38
2023-12-09T01:01:30.445Z,3.72
2023-12-09T01:03:58.125Z,4.43
2023-12-09T01:06:25.788Z,4.07
2023-12-09T01:08:53.579Z,4.85
2023-12-09T01:11:21.010Z,5.90
2023-12-09T01:13:48.523Z,4.75
2023-12-09T01:16:16.105Z,5.18
2023-12-09T01:18:43.617Z,5.68
2023-12-09T01:21:11.113Z,4.22
2023-12-09T01:23:40.467Z,4.35
2023-12-09T01:26:10.165Z,3.95
2023-12-09T01:28:37.542Z,5.10
2023-12-09T01:31:05.254Z,4.97
2023-12-09T01:33:33.746Z,4.72
2023-12-09T01:36:01.284Z,5.35
2023-12-09T01:38:28.817Z,5.38
2023-12-09T01:40:56.637Z,4.15
2023-12-09T01:43:26.838Z,4.60
2023-12-09T01:45:56.347Z,4.65
2023-12-09T01:48:24.337Z,4.80
2023-12-09T01:50:52.103Z,3.92
2023-12-09T01:53:19.718Z,5.65
2023-12-09T01:55:47.083Z,4.75
2023-12-09T01:58:14.601Z,6.55
2023-12-09T02:00:42.177Z,5.03
2023-12-09T02:03:09.745Z,4.72
2023-12-09T02:05:37.199Z,4.90
2023-12-09T02:08:05.111Z,4.78
2023-12-09T02:10:32.621Z,4.53
2023-12-09T02:13:09.904Z,4.68
2023-12-09T02:15:40.363Z,4.97
2023-12-09T02:18:09.137Z,4.75
2023-12-09T02:20:36.706Z,4.43
2023-12-09T02:23:07.932Z,4.88
2023-12-09T02:25:35.718Z,4.95
2023-12-09T02:28:07.876Z,4.57
2023-12-09T02:30:46.357Z,7.10
2023-12-09T02:33:16.522Z,5.38
2023-12-09T02:35:45.598Z,5.15
2023-12-09T02:38:13.284Z,6.68
2023-12-09T02:40:41.162Z,4.43
2023-12-09T02:43:08.774Z,4.20
2023-12-09T02:45:36.132Z,4.68
2023-12-09T02:48:04.977Z,4.93
2023-12-09T02:50:32.857Z,5.22
2023-12-09T02:53:00.223Z,4.60
2023-12-09T02:55:27.764Z,4.30
2023-12-09T02:57:57.888Z,3.58
2023-12-09T03:00:25.719Z,4.10
2023-12-09T03:02:53.362Z,4.93
2023-12-09T03:05:20.975Z,4.78
2023-12-09T03:07:48.364Z,4.13
2023-12-09T03:10:15.792Z,4.28
2023-12-09T03:12:43.171Z,4.65
2023-12-09T03:15:10.907Z,4.85
2023-12-09T03:17:38.726Z,4.60
2023-12-09T03:20:10.042Z,4.43
2023-12-09T03:22:37.515Z,5.25
2023-12-09T03:25:05.268Z,4.32
2023-12-09T03:27:32.845Z,4.22
2023-12-09T03:30:00.473Z,4.93
2023-12-09T03:32:28.361Z,4.38
2023-12-09T03:34:55.884Z,4.65
2023-12-09T03:37:23.359Z,4.43
2023-12-09T03:39:50.810Z,3.92
2023-12-09T03:42:18.325Z,3.95
2023-12-09T03:44:45.692Z,4.43
2023-12-09T03:47:21.766Z,4.30
2023-12-09T03:49:53.486Z,4.35
2023-12-09T03:52:20.841Z,3.63
2023-12-09T03:54:48.330Z,4.13
2023-12-09T03:57:16.437Z,4.50
2023-12-09T03:59:43.918Z,4.15
2023-12-09T04:02:11.389Z,5.18
2023-12-09T04:04:42.562Z,4.60
2023-12-09T04:07:10.157Z,4.57
2023-12-09T04:09:38.163Z,3.97
2023-12-09T04:12:06.033Z,4.18
2023-12-09T04:14:33.552Z,4.93
2023-12-09T04:17:01.072Z,5.10
2023-12-09T04:19:29.374Z,4.35
2023-12-09T04:22:00.892Z,4.05
2023-12-09T04:24:28.503Z,5.00
2023-12-09T04:26:56.101Z,4.50
2023-12-09T04:29:23.489Z,5.32
2023-12-09T04:31:51.042Z,4.10
2023-12-09T04:34:18.469Z,4.88
2023-12-09T04:36:45.800Z,5.50
2023-12-09T04:39:13.345Z,4.97
2023-12-09T04:41:40.713Z,4.80
2023-12-09T04:44:08.104Z,4.60
2023-12-09T04:46:35.612Z,5.35
2023-12-09T04:49:03.319Z,5.20
2023-12-09T04:51:30.889Z,5.07
2023-12-09T04:53:58.510Z,5.78
2023-12-09T04:56:26.009Z,5.72
2023-12-09T04:58:53.499Z,6.28
2023-12-09T05:01:20.929Z,5.63
2023-12-09T05:03:48.606Z,5.75
2023-12-09T05:06:16.107Z,7.13
2023-12-09T05:08:43.798Z,5.78
2023-12-09T05:11:11.158Z,5.65
2023-12-09T05:13:38.861Z,6.20
2023-12-09T05:16:07.038Z,6.25
2023-12-09T05:18:35.937Z,6.43
2023-12-09T05:21:06.338Z,6.45
2023-12-09T05:23:34.434Z,6.65
2023-12-09T05:26:02.053Z,6.50
2023-12-09T05:28:29.674Z,6.10
2023-12-09T05:30:57.478Z,6.80
2023-12-09T05:33:25.149Z,6.70
2023-12-09T05:35:52.715Z,7.15
2023-12-09T05:38:20.473Z,7.13
2023-12-09T05:40:47.955Z,7.60
2023-12-09T05:43:15.275Z,6.85
2023-12-09T05:45:42.805Z,6.50
2023-12-09T05:48:10.509Z,6.15
2023-12-09T05:50:38.873Z,8.77
2023-12-09T05:53:06.418Z,7.18
2023-12-09T05:55:33.912Z,7.15
2023-12-09T05:58:01.387Z,7.20
2023-12-09T06:00:28.933Z,7.18
2023-12-09T06:02:56.485Z,8.00
2023-12-09T06:05:24.016Z,7.50
2023-12-09T06:07:51.520Z,7.63
2023-12-09T06:10:19.013Z,8.07
2023-12-09T06:12:46.499Z,7.70
2023-12-09T06:15:14.103Z,8.30
2023-12-09T06:17:41.861Z,7.38
2023-12-09T06:20:09.863Z,7.20
2023-12-09T06:22:37.360Z,7.13
2023-12-09T06:25:04.893Z,7.82
2023-12-09T06:27:32.351Z,7.80
2023-12-09T06:30:00.738Z,8.27
2023-12-09T06:32:28.513Z,8.98
2023-12-09T06:34:55.967Z,8.65
2023-12-09T06:37:23.452Z,9.77
2023-12-09T06:39:50.880Z,9.27
2023-12-09T06:42:18.403Z,9.25
2023-12-09T06:44:45.885Z,9.80
2023-12-09T06:47:13.332Z,10.55
2023-12-09T06:49:40.777Z,10.68
2023-12-09T06:52:08.289Z,10.93
2023-12-09T06:54:36.321Z,12.10
2023-12-09T06:57:03.953Z,10.65
2023-12-09T06:59:31.400Z,11.60
2023-12-09T07:01:59.023Z,12.27
2023-12-09T07:04:26.720Z,10.98
2023-12-09T07:06:54.392Z,12.32
2023-12-09T07:09:21.942Z,11.80
2023-12-09T07:12:01.319Z,12.27
2023-12-09T07:14:30.283Z,12.57
2023-12-09T07:16:57.635Z,12.25
2023-12-09T07:19:25.178Z,11.88
2023-12-09T07:21:52.721Z,12.82
2023-12-09T07:24:20.225Z,12.00
2023-12-09T07:26:47.599Z,13.43
2023-12-09T07:29:15.094Z,11.52
2023-12-09T07:31:42.886Z,11.98
2023-12-09T07:34:16.941Z,13.25
2023-12-09T07:36:44.711Z,13.18
2023-12-09T07:39:12.044Z,12.10
2023-12-09T07:41:39.762Z,11.40
2023-12-09T07:44:07.183Z,11.68
2023-12-09T07:46:34.602Z,11.85
2023-12-09T07:49:02.265Z,12.45
2023-12-09T07:51:30.117Z,11.80
2023-12-09T07:53:57.605Z,10.15
2023-12-09T07:56:25.103Z,11.40
2023-12-09T07:58:53.164Z,11.00
2023-12-09T08:01:20.574Z,10.23
2023-12-09T08:03:48.116Z,10.90
2023-12-09T08:06:15.706Z,9.80
2023-12-09T08:08:43.075Z,9.65
2023-12-09T08:11:10.622Z,8.50
2023-12-09T08:13:38.081Z,8.70
2023-12-09T08:16:05.706Z,8.63
2023-12-09T08:18:33.389Z,7.72
2023-12-09T08:21:01.077Z,8.38
2023-12-09T08:23:28.557Z,7.15
2023-12-09T08:25:56.348Z,7.55
2023-12-09T08:28:23.774Z,7.43
2023-12-09T08:30:52.174Z,6.03
2023-12-09T08:33:20.268Z,6.55
2023-12-09T08:35:47.911Z,6.13
2023-12-09T08:38:15.281Z,7.38
2023-12-09T08:40:42.814Z,6.28
2023-12-09T08:43:10.307Z,6.70
2023-12-09T08:45:37.824Z,6.35
2023-12-09T08:48:05.608Z,6.40
2023-12-09T08:50:33.265Z,5.18
2023-12-09T08:53:00.695Z,6.05
2023-12-09T08:55:28.437Z,5.40
2023-12-09T08:57:55.972Z,5.53
2023-12-09T09:00:27.193Z,5.45
2023-12-09T09:02:57.888Z,4.97
2023-12-09T09:05:25.448Z,4.93
2023-12-09T09:07:52.897Z,4.22
2023-12-09T09:10:20.517Z,5.00
2023-12-09T09:12:48.602Z,4.75
2023-12-09T09:15:17.672Z,4.82
2023-12-09T09:17:45.269Z,4.80
2023-12-09T09:20:12.797Z,4.10
2023-12-09T09:22:41.596Z,3.95
2023-12-09T09:25:10.748Z,4.57
2023-12-09T09:27:38.438Z,4.45
2023-12-09T09:30:06.312Z,5.75
2023-12-09T09:32:33.831Z,4.40
2023-12-09T09:35:01.563Z,4.30
2023-12-09T09:37:29.783Z,3.80
2023-12-09T09:39:57.348Z,4.82
2023-12-09T09:43:00.082Z,4.05
2023-12-09T09:45:32.735Z,4.38
2023-12-09T09:48:08.214Z,3.78
2023-12-09T09:50:41.407Z,3.25
2023-12-09T09:53:12.166Z,5.38
2023-12-09T09:55:43.030Z,3.75
2023-12-09T09:58:10.628Z,3.40
2023-12-09T10:00:38.193Z,3.75
2023-12-09T10:03:05.831Z,4.55
2023-12-09T10:05:33.277Z,3.40
2023-12-09T10:08:00.758Z,4.13
2023-12-09T10:10:28.936Z,4.07
2023-12-09T10:12:56.419Z,2.90
2023-12-09T10:15:23.828Z,2.53
2023-12-09T10:17:51.445Z,3.30
2023-12-09T10:20:18.814Z,2.75
2023-12-09T10:22:48.035Z,2.95
2023-12-09T10:25:22.662Z,2.55
2023-12-09T10:27:50.257Z,2.92
2023-12-09T10:30:21.645Z,2.58
2023-12-09T10:32:49.817Z,2.63
2023-12-09T10:35:18.379Z,2.85
2023-12-09T10:37:45.992Z,2.80
2023-12-09T10:40:14.742Z,2.17
2023-12-09T10:42:42.187Z,2.38
2023-12-09T10:45:09.841Z,2.47
2023-12-09T10:47:37.626Z,2.40
2023-12-09T10:50:05.745Z,2.30
2023-12-09T10:52:35.244Z,3.35
2023-12-09T10:55:03.984Z,1.88
2023-12-09T10:57:33.875Z,1.85
2023-12-09T11:00:02.520Z,1.83
2023-12-09T11:02:32.091Z,2.15
2023-12-09T11:04:59.655Z,2.58
2023-12-09T11:07:27.128Z,2.45
2023-12-09T11:09:54.637Z,1.70
2023-12-09T11:12:29.690Z,2.45
2023-12-09T11:14:57.933Z,1.50
2023-12-09T11:17:39.270Z,1.90
2023-12-09T11:20:18.168Z,1.90
2023-12-09T11:22:46.226Z,2.28
2023-12-09T11:25:21.102Z,2.05
2023-12-09T11:30:36.178Z,1.55
2023-12-09T11:33:04.662Z,1.90
2023-12-09T11:35:34.430Z,2.00
2023-12-09T11:38:02.425Z,1.60
2023-12-09T11:40:30.981Z,1.42
2023-12-09T11:42:59.092Z,1.98
2023-12-09T11:45:28.681Z,1.85
2023-12-09T11:47:58.046Z,1.75
2023-12-09T11:50:26.148Z,1.60
2023-12-09T11:52:53.679Z,1.77
2023-12-09T11:55:21.169Z,1.80
2023-12-09T11:57:49.053Z,1.75
2023-12-09T12:00:17.004Z,1.73
2023-12-09T12:02:44.537Z,2.83
2023-12-09T12:05:15.334Z,1.95
2023-12-09T12:07:42.892Z,1.92
2023-12-09T12:10:11.123Z,2.08
2023-12-09T12:12:38.667Z,2.58
2023-12-09T12:15:06.924Z,2.28
2023-12-09T12:17:41.353Z,1.73
2023-12-09T12:20:10.336Z,2.05
2023-12-09T12:22:37.770Z,2.50
2023-12-09T12:25:05.563Z,1.90
2023-12-09T12:27:37.747Z,2.35
2023-12-09T12:30:05.598Z,1.60
2023-12-09T12:32:37.361Z,2.42
2023-12-09T12:35:05.658Z,2.35
2023-12-09T12:37:33.260Z,2.40
2023-12-09T12:40:00.761Z,2.00
2023-12-09T12:42:28.752Z,1.77
2023-12-09T12:44:56.940Z,1.98
2023-12-09T12:47:24.418Z,1.92
2023-12-09T12:49:52.449Z,1.77
2023-12-09T12:52:20.055Z,1.63
2023-12-09T12:54:47.591Z,1.40
2023-12-09T12:57:15.151Z,1.45
2023-12-09T12:59:42.669Z,1.45
2023-12-09T13:02:10.112Z,1.80
2023-12-09T13:04:37.598Z,1.20
2023-12-09T13:07:05.534Z,1.20
2023-12-09T13:09:33.086Z,1.13
2023-12-09T13:12:00.684Z,1.48
2023-12-09T13:14:28.438Z,1.55
2023-12-09T13:16:55.879Z,1.60
2023-12-09T13:19:23.623Z,1.30
2023-12-09T13:21:51.161Z,1.98
2023-12-09T13:24:18.592Z,1.20
2023-12-09T13:26:46.186Z,1.20
2023-12-09T13:29:13.722Z,1.92
2023-12-09T13:31:41.883Z,1.50
2023-12-09T13:34:11.028Z,1.63
2023-12-09T13:36:41.420Z,1.05
2023-12-09T13:39:13.178Z,1.20
2023-12-09T13:41:41.331Z,1.70
2023-12-09T13:44:08.862Z,1.42
2023-12-09T13:46:37.196Z,1.25
2023-12-09T13:49:04.869Z,1.38
2023-12-09T13:51:32.368Z,1.30
2023-12-09T13:53:59.807Z,1.50
2023-12-09T13:56:27.494Z,1.90
2023-12-09T13:58:54.950Z,1.80
2023-12-09T14:01:22.738Z,2.33
2023-12-09T14:03:50.709Z,1.38
2023-12-09T14:06:18.611Z,1.20
2023-12-09T14:08:46.130Z,1.50
2023-12-09T14:11:15.832Z,1.85
2023-12-09T14:13:43.319Z,1.30
2023-12-09T14:16:10.920Z,1.50
2023-12-09T14:18:39.325Z,1.30
2023-12-09T14:21:08.418Z,1.80
2023-12-09T14:23:35.860Z,1.75
2023-12-09T14:26:04.781Z,1.30
2023-12-09T14:28:32.193Z,1.20
2023-12-09T14:30:59.703Z,2.33
2023-12-09T14:33:27.579Z,1.40
2023-12-09T14:35:55.181Z,1.60
2023-12-09T14:38:22.576Z,1.50
2023-12-09T14:40:50.248Z,1.75
2023-12-09T14:43:17.639Z,1.95
2023-12-09T14:45:45.149Z,1.50
2023-12-09T14:48:13.629Z,1.73
2023-12-09T14:50:41.191Z,1.70
2023-12-09T14:53:12.491Z,1.77
2023-12-09T14:55:40.256Z,2.13
2023-12-09T14:58:07.754Z,1.75
2023-12-09T15:00:35.604Z,2.00
2023-12-09T15:03:03.372Z,1.92
2023-12-09T15:05:31.142Z,1.95
2023-12-09T15:07:58.692Z,2.80
2023-12-09T15:10:26.368Z,3.22
2023-12-09T15:12:54.350Z,2.47
2023-12-09T15:15:22.294Z,2.53
2023-12-09T15:17:50.056Z,2.28
2023-12-09T15:20:17.793Z,2.50
2023-12-09T15:22:48.036Z,2.40
2023-12-09T15:25:19.416Z,2.60
2023-12-09T15:27:47.474Z,2.65
2023-12-09T15:30:15.497Z,2.70
2023-12-09T15:32:45.620Z,2.90
2023-12-09T15:35:13.290Z,3.20
2023-12-09T15:37:41.149Z,2.97
2023-12-09T15:40:12.492Z,2.75
2023-12-09T15:42:40.135Z,3.30
2023-12-09T15:45:07.890Z,3.15
2023-12-09T15:47:35.801Z,3.58
2023-12-09T15:50:04.502Z,3.88
2023-12-09T15:52:32.211Z,4.90
2023-12-09T15:54:59.888Z,5.25
2023-12-09T15:57:27.313Z,5.15
2023-12-09T15:59:54.942Z,5.20
2023-12-09T16:02:22.685Z,6.82
2023-12-09T16:04:50.109Z,6.60
2023-12-09T16:07:17.736Z,6.88
2023-12-09T16:09:51.935Z,5.22
2023-12-09T16:12:21.438Z,5.57
2023-12-09T16:14:53.131Z,6.85
2023-12-09T16:17:20.820Z,7.68
2023-12-09T16:19:48.487Z,8.00
2023-12-09T16:22:17.762Z,6.40
2023-12-09T16:24:49.189Z,5.60
2023-12-09T16:27:17.400Z,5.45
2023-12-09T16:29:45.188Z,5.30
2023-12-09T16:32:12.679Z,7.90
2023-12-09T16:34:40.365Z,4.95
2023-12-09T16:37:08.187Z,5.82
2023-12-09T16:39:35.599Z,5.35
2023-12-09T16:42:03.813Z,4.90
2023-12-09T16:44:31.526Z,4.47
2023-12-09T16:46:59.103Z,5.55
2023-12-09T16:49:26.692Z,4.90
2023-12-09T16:51:54.247Z,6.20
2023-12-09T16:54:25.167Z,6.45
2023-12-09T16:56:52.862Z,6.00
2023-12-09T16:59:20.510Z,6.35
2023-12-09T17:01:48.304Z,5.68
2023-12-09T17:04:16.422Z,6.75
2023-12-09T17:06:44.972Z,6.00
2023-12-09T17:09:12.498Z,7.70
2023-12-09T17:11:40.072Z,6.35
2023-12-09T17:14:07.551Z,7.40
2023-12-09T17:16:35.036Z,6.60
2023-12-09T17:19:02.547Z,7.10
2023-12-09T17:21:30.179Z,6.85
2023-12-09T17:23:57.599Z,6.50
2023-12-09T17:26:25.434Z,6.38
2023-12-09T17:28:53.522Z,6.72
2023-12-09T17:31:21.068Z,6.07
2023-12-09T17:33:48.569Z,6.32
2023-12-09T17:36:17.349Z,6.10
2023-12-09T17:38:44.742Z,5.38
2023-12-09T17:41:12.250Z,4.28
2023-12-09T17:43:39.925Z,6.13
2023-12-09T17:46:07.828Z,6.60
2023-12-09T17:48:36.341Z,5.47
2023-12-09T17:51:04.058Z,5.72
2023-12-09T17:53:31.523Z,5.28
2023-12-09T17:55:58.984Z,7.32
2023-12-09T17:58:26.724Z,4.43
2023-12-09T18:00:54.696Z,6.28
2023-12-09T18:03:22.350Z,7.13
2023-12-09T18:05:51.982Z,5.93
2023-12-09T18:08:22.815Z,6.57
2023-12-09T18:10:50.359Z,6.20
2023-12-09T18:13:17.829Z,5.88
2023-12-09T18:15:45.890Z,7.07
2023-12-09T18:18:13.873Z,6.32
2023-12-09T18:20:41.534Z,6.28
2023-12-09T18:23:09.083Z,5.45
2023-12-09T18:25:36.781Z,5.60
2023-12-09T18:28:04.354Z,5.72
2023-12-09T18:30:32.550Z,5.63
2023-12-09T18:33:00.111Z,5.55
2023-12-09T18:35:27.931Z,5.43
2023-12-09T18:37:55.830Z,5.63
2023-12-09T18:40:24.231Z,4.68
2023-12-09T18:42:52.516Z,5.35
2023-12-09T18:45:20.304Z,4.75
2023-12-09T18:47:47.959Z,5.28
2023-12-09T18:50:15.527Z,5.22
2023-12-09T18:52:43.265Z,6.30
2023-12-09T18:55:11.024Z,5.53
2023-12-09T18:57:38.779Z,6.07
2023-12-09T19:00:07.542Z,5.22
2023-12-09T19:02:35.521Z,5.40
2023-12-09T19:05:03.456Z,5.43
2023-12-09T19:07:31.509Z,5.10
2023-12-09T19:10:00.453Z,5.32
2023-12-09T19:12:29.549Z,5.28
2023-12-09T19:14:57.430Z,5.00
2023-12-09T19:17:24.841Z,6.28
2023-12-09T19:19:52.436Z,6.35
2023-12-09T19:22:19.927Z,6.63
2023-12-09T19:24:47.822Z,6.00
2023-12-09T19:27:15.791Z,7.03
2023-12-09T19:29:44.364Z,5.68
2023-12-09T19:32:13.489Z,6.07
2023-12-09T19:34:41.569Z,5.57
2023-12-09T19:37:09.557Z,6.22
2023-12-09T19:39:36.977Z,6.20
2023-12-09T19:42:04.691Z,6.57
2023-12-09T19:44:32.310Z,6.47
2023-12-09T19:46:59.950Z,5.57
2023-12-09T19:49:28.215Z,5.78
2023-12-09T19:51:55.843Z,7.85
2023-12-09T19:54:24.768Z,6.60
2023-12-09T19:56:53.444Z,6.22
2023-12-09T19:59:20.959Z,5.43
2023-12-09T20:01:48.517Z,6.10
2023-12-09T20:04:17.222Z,4.97
2023-12-09T20:06:45.117Z,6.45
2023-12-09T20:09:12.684Z,6.75
2023-12-09T20:11:40.244Z,6.78
2023-12-09T20:14:07.837Z,6.30
2023-12-09T20:16:35.323Z,5.68
2023-12-09T20:19:06.682Z,5.43
2023-12-09T20:21:36.352Z,6.50
2023-12-09T20:24:03.978Z,5.13
2023-12-09T20:26:32.759Z,5.72
2023-12-09T20:29:00.473Z,4.70
2023-12-09T20:31:27.831Z,6.68
2023-12-09T20:33:55.292Z,6.45
2023-12-09T20:36:23.135Z,5.65
2023-12-09T20:38:50.554Z,5.93
2023-12-09T20:41:18.097Z,7.25
2023-12-09T20:43:45.616Z,6.20
2023-12-09T20:46:15.158Z,6.47
2023-12-09T20:48:42.700Z,5.93
2023-12-09T20:51:10.237Z,5.80
2023-12-09T20:53:37.745Z,4.28
2023-12-09T20:56:06.022Z,4.90
2023-12-09T20:58:33.692Z,5.00
2023-12-09T21:01:02.639Z,5.60
2023-12-09T21:03:30.602Z,5.15
2023-12-09T21:05:58.323Z,5.13
2023-12-09T21:08:25.781Z,6.18
2023-12-09T21:10:53.217Z,4.63
2023-12-09T21:13:20.776Z,4.47
2023-12-09T21:15:48.344Z,6.18
2023-12-09T21:18:16.018Z,5.93
2023-12-09T21:20:43.723Z,5.35
2023-12-09T21:23:11.138Z,6.43
2023-12-09T21:25:38.557Z,4.97
2023-12-09T21:28:08.645Z,5.03
2023-12-09T21:30:36.635Z,5.70
2023-12-09T21:33:04.893Z,5.57
2023-12-09T21:35:32.645Z,5.45
2023-12-09T21:38:00.130Z,4.85
2023-12-09T21:40:27.619Z,3.95
2023-12-09T21:42:55.640Z,4.70
2023-12-09T21:45:23.183Z,6.78
2023-12-09T21:47:55.122Z,6.72
2023-12-09T21:50:24.011Z,7.07
2023-12-09T21:52:51.649Z,5.53
2023-12-09T21:55:20.988Z,4.97
2023-12-09T21:57:48.621Z,4.93
2023-12-09T22:00:16.411Z,5.72
2023-12-09T22:02:44.455Z,7.50
2023-12-09T22:05:12.218Z,5.95
2023-12-09T22:07:39.714Z,6.97
2023-12-09T22:10:07.515Z,5.93
2023-12-09T22:12:37.351Z,6.63
2023-12-09T22:15:06.383Z,5.70
2023-12-09T22:17:33.828Z,6.35
2023-12-09T22:20:01.486Z,5.95
2023-12-09T22:22:34.702Z,5.68
2023-12-09T22:25:06.182Z,7.10
2023-12-09T22:27:33.708Z,6.07
2023-12-09T22:30:01.269Z,6.07
2023-12-09T22:32:28.810Z,6.15
2023-12-09T22:34:56.583Z,6.32
2023-12-09T22:37:24.115Z,6.40
2023-12-09T22:39:51.750Z,6.40
2023-12-09T22:42:19.208Z,7.88
2023-12-09T22:44:46.677Z,5.40
2023-12-09T22:47:14.714Z,6.88
2023-12-09T22:49:42.397Z,4.85
2023-12-09T22:52:09.912Z,5.55
2023-12-09T22:54:37.548Z,5.97
2023-12-09T22:57:09.851Z,6.50
2023-12-09T22:59:37.426Z,6.20
2023-12-09T23:02:06.488Z,5.25
2023-12-09T23:04:34.015Z,6.20
2023-12-09T23:07:01.516Z,5.43
2023-12-09T23:09:29.106Z,6.18
2023-12-09T23:11:56.558Z,6.20
2023-12-09T23:14:24.128Z,4.88
2023-12-09T23:16:51.784Z,4.97
2023-12-09T23:19:19.362Z,5.57
2023-12-09T23:21:46.904Z,5.28
2023-12-09T23:24:14.648Z,4.90
2023-12-09T23:26:42.188Z,5.63
2023-12-09T23:29:10.121Z,4.43
2023-12-09T23:31:41.721Z,4.43
2023-12-09T23:34:10.726Z,4.22
2023-12-09T23:36:38.488Z,4.63
2023-12-09T23:39:06.198Z,3.92
2023-12-09T23:41:33.611Z,4.68
2023-12-09T23:44:01.129Z,4.68
2023-12-09T23:46:28.569Z,5.38
2023-12-09T23:48:57.206Z,4.63
2023-12-09T23:51:25.118Z,5.75
2023-12-09T23:53:52.570Z,5.93
2023-12-09T23:56:24.426Z,4.88
2023-12-09T23:58:52.099Z,6.35
